Pagina principală
METAR-TAF:

METAR-TAF

Aeroporturi :

Kano, Nigeria

Latitudine: 12-03N, longitudine: 008-32E, elevație: 476 m

Observații meteo curente

Raportul a fost făcut în urmă cu 34 de minute, la 06:00 UTC
Vânt 11 kt de la Sud/Sud-est
Temperatură 27°C
Umiditate 74%
Presiune 1015 hPa
Vizibilitate de 10 km sau mai mult
nu există nori sub 1.500 m și nici cumulonimbus

METAR: DNKN 280600Z 16011KT CAVOK 27/22 Q1015 NOSIG

Ora: 07:34 (06:34 UTC)

Prognoză

Raportul a fost făcut în urmă cu 1 oră și 34 de minute, la 05:00 UTC
Prognoză valabilă de la 28 ora 06 UTC la 29 ora 12 UTC
Vânt 10 kt de la Sud-vest
Vizibilitate de 10 km sau mai mult
nu există nori sub 1.500 m și nici cumulonimbus
Temporar
de la 28 ora 13 UTC la 28 ora 19 UTC
Nori împrăștiați la o înălțime de 1300 picior
Nori puțini la o înălțime de 2000 picior, Cumulonimbus.
oraj,

TAF: DNKN 280500Z 2806/2912 23010KT CAVOK TEMPO 2813/2819 TS SCT013 FEW020CB

Observații și prognoze meteo pentru peste 4.000 de aeroporturi (rapoarte METAR și TAF).

Stațiile disponibile sunt reprezentate pe hartă prin puncte galbene și roșii.

Țineți indicatorul mouse-ului pe punctul dorit pentru a vedea denumirea stației.

Apoi, faceți clic pentru a vedea observațiile și prognozele meteorologice.

Pentru a schimba harta: Pentru mărire, faceți clic pe butoanele verzi cu cruce neagră; pentru micșorare, pe butonul verde cu o liniuță; pentru hărți învecinate, pe săgețile verzi.


METAR-TAF: